Flight Track Log - Related Links

Times and Time Zones

All times are in EDT time to prevent confusion due to time zone crossing. See the GJS6187 flight status page for this flight to view local times or setup timezone preferences in your user account.

Time Position Orientation Groundspeed Altitude Reporting Facility
EDT Latitude Longitude Course Direction KTS MPH feet Rate Location/Type
Tue 01:38:58 PM 42.9333 -78.7500 155° Southeast 138 159 1,600  Level Buffalo TRACON
Tue 01:40:39 PM 42.8492 -78.6972 125° Southeast 292 336 5,300 2,460 Climbing Cleveland Center
Tue 01:41:39 PM 42.8083 -78.6192 98° East 314 361 8,200 3,050 Climbing Cleveland Center
Tue 01:42:39 PM 42.7958 -78.4978 85° East 283 326 11,400 2,850 Climbing Cleveland Center
Tue 01:43:39 PM 42.8039 -78.3758 86° East 296 341 13,900 2,650 Climbing Cleveland Center
Tue 01:44:39 PM 42.8097 -78.2483 91° East 328 377 16,700 2,313 Climbing Cleveland Center
Tue 01:46:51 PM 42.8053 -77.9400 99° East 369 425 21,300 2,156 Climbing Cleveland Center
Tue 01:47:51 PM 42.7869 -77.7908 99° East 391 450 23,600 1,633 Climbing Cleveland Center
Tue 01:49:51 PM 42.7531 -77.4886 99° East 423 487 26,200 1,267 Climbing Boston Center
Tue 01:50:51 PM 42.7333 -77.3200 100° East 449 517 27,400 1,400 Climbing Boston Center
Tue 01:51:51 PM 42.7114 -77.1458 99° East 457 526 29,000 800 Climbing Boston Center
Tue 01:52:51 PM 42.6897 -76.9633 99° East 482 555 29,000  Level Boston Center
Tue 01:53:51 PM 42.6664 -76.7608 100° East 490 564 29,000  Level Boston Center
Tue 01:54:51 PM 42.6419 -76.5756 99° East 490 564 29,000 -50 Level Boston Center
Tue 01:55:51 PM 42.6194 -76.3878 100° East 490 564 28,900 -450 Descending Boston Center
Tue 01:56:51 PM 42.5997 -76.2286 101° East 490 564 28,100 -950 Descending Boston Center
Tue 01:57:51 PM 42.5708 -76.0294 100° East 490 564 27,000 -1,000 Descending Boston Center
Tue 01:58:51 PM 42.5472 -75.8503 101° East 485 558 26,100 -900 Descending Boston Center
Tue 01:59:51 PM 42.5231 -75.6744 100° East 480 552 25,200 -850 Descending Boston Center
Tue 02:00:51 PM 42.5008 -75.5014 101° East 470 541 24,400 -750 Descending Boston Center
Tue 02:01:51 PM 42.4764 -75.3256 107° East 470 541 23,700 -700 Descending Boston Center
Tue 02:02:51 PM 42.4406 -75.1692 117° Southeast 463 533 23,000 -700 Descending Boston Center
Tue 02:03:51 PM 42.3836 -75.0178 116° Southeast 452 520 22,300 -700 Descending Boston Center
Tue 02:04:51 PM 42.3306 -74.8694 118° Southeast 441 507 21,600 -650 Descending Boston Center
Tue 02:05:51 PM 42.2733 -74.7242 115° Southeast 436 502 21,000 -600 Descending Boston Center
Tue 02:06:51 PM 42.2219 -74.5764 118° Southeast 436 502 20,400 -650 Descending Boston Center
Tue 02:07:51 PM 42.1661 -74.4344 116° Southeast 436 502 19,700 -650 Descending Boston Center
Tue 02:08:51 PM 42.1203 -74.3097 126° Southeast 430 495 19,100 -350 Descending Boston Center
Tue 02:09:51 PM 42.0453 -74.1733 152° Southeast 418 481 19,000 -50 Descending Boston Center
Tue 02:10:51 PM 41.9464 -74.1036 160° South 400 460 19,000 -500 Level Boston Center
Tue 02:11:51 PM 41.8553 -74.0594 159° South 395 455 18,000 -1,550 Descending Boston Center
Tue 02:12:51 PM 41.7456 -74.0039 161° South 383 441 15,900 -1,950 Descending Boston Center
Tue 02:13:51 PM 41.6586 -73.9628 157° South 378 435 14,100 -1,784 Descending Boston Center
Tue 02:15:19 PM 41.5167 -73.8833 159° South 317 365 11,500 -1,541 Descending New York TRACON
Tue 02:16:19 PM 41.4500 -73.8500 163° South 277 319 10,300 -1,150 Descending New York TRACON
Tue 02:17:19 PM 41.3667 -73.8167 143° Southeast 297 342 9,200 -650 Descending New York TRACON
Tue 02:18:19 PM 41.3000 -73.7500 151° Southeast 302 348 9,000 -600 Descending New York TRACON
Tue 02:19:19 PM 41.2333 -73.7000 143° Southeast 289 333 8,000 -1,650 Descending New York TRACON
Tue 02:20:19 PM 41.1667 -73.6333 166° South 277 319 5,700 -1,800 Descending New York TRACON
Tue 02:21:19 PM 41.1167 -73.6167 194° South 221 254 4,400 -850 Descending New York TRACON
Tue 02:22:19 PM 41.0667 -73.6333 217° Southwest 160 184 4,000 -200 Descending New York TRACON
Tue 02:23:19 PM 41.0333 -73.6667 217° Southwest 144 166 4,000  Level New York TRACON
Tue 02:24:19 PM 41.0000 -73.7000 201° Southwest 149 171 4,000 -200 Level New York TRACON
Tue 02:25:19 PM 40.9667 -73.7167 217° Southwest 139 160 3,600 -500 Descending New York TRACON
Tue 02:26:19 PM 40.9333 -73.7500 217° Southwest 142 163 3,000 -450 Descending New York TRACON
Tue 02:27:19 PM 40.9000 -73.7833 201° Southwest 138 159 2,700 -500 Descending New York TRACON
Tue 02:28:19 PM 40.8667 -73.8000 217° Southwest 115 132 2,000 -650 Descending New York TRACON
Tue 02:29:19 PM 40.8500 -73.8167 217° Southwest 104 120 1,400 -550 Descending New York TRACON
Tue 02:30:19 PM 40.8167 -73.8500 217° Southwest 100 115 900 -550 Descending New York TRACON
Tue 02:31:19 PM 40.8000 -73.8667 217° Southwest 109 125 300 -600 Descending New York TRACON

Login

Don't have an account? Register now (free) for customized features, flight alerts, and more!